Time;durP1;ratioP1;P1;durP2;ratioP2;P2;SDS_P1;SDS_P2;PMS_P1;PMS_P2;Temp;Humidity;BMP_temperature;BMP_pressure;BME280_temperature;BME280_humidity;BME280_pressure;Samples;Min_cycle;Max_cycle;Signal;HPM_P1;HPM_P2
2021/09/27 05:56:40;;;;;;;7.10;2.00;;;;;;;21.44;42.53;100023.13;4965696;23;20447;-75
2021/09/27 05:59:18;;;;;;;5.53;2.33;;;;;;;21.32;42.41;100032.72;4897478;29;20115;-75
2021/09/27 06:02:29;;;;;;;3.05;1.30;;;;;;;21.45;42.32;100037.81;4896088;29;20047;-75
2021/09/27 06:05:07;;;;;;;6.20;1.70;;;;;;;21.40;42.44;100039.03;4895956;29;20032;-78
2021/09/27 06:08:06;;;;;;;11.35;1.75;;;;;;;21.33;42.25;100050.97;4897355;29;20036;-75
2021/09/27 06:10:45;;;;;;;4.40;1.35;;;;;;;21.30;42.52;100032.31;4897334;29;20072;-75
2021/09/27 06:13:30;;;;;;;9.25;2.85;;;;;;;21.21;42.44;100042.25;4895922;29;20036;-75
2021/09/27 06:16:27;;;;;;;5.53;1.70;;;;;;;21.25;42.35;100038.28;4897312;29;20033;-75
2021/09/27 06:19:05;;;;;;;7.25;1.50;;;;;;;21.17;42.74;100038.69;4897245;29;20024;-75
2021/09/27 06:22:06;;;;;;;6.80;2.08;;;;;;;21.10;42.82;100036.72;4897240;29;20036;-73
2021/09/27 06:24:59;;;;;;;7.15;1.90;;;;;;;21.11;42.88;100031.97;4895942;29;20029;-72
2021/09/27 06:27:37;;;;;;;6.43;2.30;;;;;;;21.13;42.87;100032.34;4897222;29;20041;-73
2021/09/27 06:30:27;;;;;;;6.88;2.03;;;;;;;20.99;43.28;100039.53;4897169;29;20032;-74
2021/09/27 06:33:17;;;;;;;5.55;2.38;;;;;;;21.02;43.25;100041.53;4895791;29;20407;-73
2021/09/27 06:35:46;;;;;;;3.85;1.88;;;;;;;21.10;42.75;100035.94;4895860;29;20115;-73
2021/09/27 06:38:14;;;;;;;6.53;2.08;;;;;;;21.13;42.92;100032.34;4897002;29;20055;-73
2021/09/27 06:40:45;;;;;;;6.90;1.63;;;;;;;21.03;43.24;100032.00;4897107;29;20035;-73
2021/09/27 06:43:18;;;;;;;4.03;1.70;;;;;;;21.13;42.75;100026.78;4897297;29;20387;-72
2021/09/27 06:45:45;;;;;;;6.72;2.03;;;;;;;21.05;43.06;100035.16;4896978;29;20471;-72
2021/09/27 06:48:10;;;;;;;4.53;2.00;;;;;;;21.08;42.92;100035.53;4896941;29;20028;-73
2021/09/27 06:50:36;;;;;;;5.22;1.88;;;;;;;20.95;43.40;100047.09;4896873;29;20032;-72
2021/09/27 06:53:02;;;;;;;4.05;1.70;;;;;;;21.00;43.14;100043.88;4900204;29;20036;-72
2021/09/27 06:55:27;;;;;;;5.47;2.20;;;;;;;20.82;43.54;100057.03;4900078;29;20060;-72
2021/09/27 06:57:53;;;;;;;3.72;1.63;;;;;;;20.86;43.29;100049.50;4900501;29;20040;-71
2021/09/27 07:00:18;;;;;;;4.53;1.67;;;;;;;20.94;43.20;100051.06;4900260;29;20542;-72
2021/09/27 07:02:44;;;;;;;5.07;2.00;;;;;;;20.94;43.13;100047.50;4900026;29;20065;-76
2021/09/27 07:05:10;;;;;;;5.72;1.75;;;;;;;20.85;43.18;100053.44;4899833;29;20199;-72
2021/09/27 07:07:37;;;;;;;5.35;2.10;;;;;;;20.89;43.09;100045.13;4900191;29;20037;-73
2021/09/27 07:10:07;;;;;;;8.32;2.20;;;;;;;20.87;43.05;100051.06;4900080;29;20036;-74
2021/09/27 07:12:32;;;;;;;3.40;1.60;;;;;;;20.74;43.36;100058.22;4899782;29;20483;-72
2021/09/27 07:14:58;;;;;;;4.82;2.08;;;;;;;20.65;43.43;100057.84;4900171;29;20037;-78
2021/09/27 07:17:23;;;;;;;6.40;1.45;;;;;;;20.70;43.29;100063.75;4899618;29;20036;-73
2021/09/27 07:19:49;;;;;;;3.80;1.42;;;;;;;20.58;43.37;100061.41;4899982;29;20029;-72
2021/09/27 07:22:15;;;;;;;4.68;1.67;;;;;;;20.71;43.08;100059.03;4899779;29;20036;-74
2021/09/27 07:24:41;;;;;;;4.82;1.40;;;;;;;20.69;43.19;100066.94;4897881;29;20033;-74
2021/09/27 07:27:06;;;;;;;4.78;1.83;;;;;;;20.68;43.26;100062.59;4899777;29;20120;-74
2021/09/27 07:29:32;;;;;;;4.60;1.45;;;;;;;20.64;43.31;100064.59;4899525;29;20036;-73
2021/09/27 07:31:57;;;;;;;4.55;1.52;;;;;;;20.64;43.46;100059.03;4899615;29;20029;-74
2021/09/27 07:34:23;;;;;;;3.15;1.20;;;;;;;20.65;43.45;100055.84;4900085;29;20028;-74
2021/09/27 07:36:49;;;;;;;3.95;1.20;;;;;;;20.55;43.89;100050.28;4899604;29;20092;-75
2021/09/27 07:39:15;;;;;;;2.67;1.33;;;;;;;20.50;43.89;100057.06;4899572;29;20060;-74
2021/09/27 07:41:41;;;;;;;4.47;1.98;;;;;;;20.72;43.48;100050.28;4899556;29;20060;-74
2021/09/27 07:44:07;;;;;;;3.42;1.30;;;;;;;20.76;43.56;100059.41;4898343;29;20036;-74
2021/09/27 07:46:34;;;;;;;8.15;1.70;;;;;;;20.94;43.34;100053.84;4899480;29;20483;-74
2021/09/27 07:48:59;;;;;;;7.07;2.05;;;;;;;20.86;43.68;100052.28;4898192;29;20028;-74
2021/09/27 07:51:26;;;;;;;3.63;1.63;;;;;;;20.81;43.86;100055.44;4899406;29;20044;-74
2021/09/27 07:53:52;;;;;;;5.80;2.10;;;;;;;20.91;43.74;100054.63;4898301;29;20123;-74
2021/09/27 07:56:18;;;;;;;2.72;1.20;;;;;;;20.97;43.68;100061.34;4899066;29;20088;-74
2021/09/27 07:58:44;;;;;;;4.65;1.77;;;;;;;21.07;43.67;100068.06;4899198;29;20446;-75
2021/09/27 08:01:10;;;;;;;6.57;1.83;;;;;;;20.95;43.90;100069.31;4899742;29;20091;-74
2021/09/27 08:03:36;;;;;;;7.20;2.03;;;;;;;21.16;43.45;100068.47;4898843;29;20029;-74
2021/09/27 08:06:02;;;;;;;4.13;2.22;;;;;;;21.20;43.46;100071.22;4899045;29;20040;-74
2021/09/27 08:08:28;;;;;;;3.33;1.60;;;;;;;21.30;43.39;100087.09;4906505;29;20513;-75
2021/09/27 08:10:54;;;;;;;3.63;1.38;;;;;;;21.25;43.57;100088.28;4907801;29;20024;-76
2021/09/27 08:13:20;;;;;;;7.13;2.08;;;;;;;21.10;43.95;100099.84;4908907;29;20072;-74
2021/09/27 08:15:49;;;;;;;7.93;2.05;;;;;;;21.27;43.61;100110.09;4906622;29;20029;-75
2021/09/27 08:18:15;;;;;;;6.45;1.75;;;;;;;21.15;43.94;100113.28;4905972;29;20035;-75
2021/09/27 08:20:46;;;;;;;6.03;1.63;;;;;;;;;;4908328;29;20024;-75
2021/09/27 08:23:12;;;;;;;8.48;2.35;;;;;;;21.01;44.32;100114.91;4907334;29;20025;-74
2021/09/27 08:25:38;;;;;;;4.90;1.23;;;;;;;21.29;43.68;100116.06;4905385;29;20054;-74
2021/09/27 08:28:07;;;;;;;4.78;1.50;;;;;;;21.00;44.50;100109.75;4904929;29;20079;-74
2021/09/27 08:30:43;;;;;;;4.03;1.65;;;;;;;21.29;43.92;100116.06;4907247;29;20028;-75
2021/09/27 08:33:08;;;;;;;4.88;1.45;;;;;;;21.45;43.58;100121.19;4907474;29;20059;-75
2021/09/27 08:35:36;;;;;;;7.85;1.65;;;;;;;21.51;43.46;100117.59;4907183;29;20491;-76
2021/09/27 08:38:04;;;;;;;6.70;2.08;;;;;;;21.45;43.61;100123.97;4905973;29;20023;-75
2021/09/27 08:40:51;;;;;;;6.07;1.58;;;;;;;21.44;43.47;100119.63;4907212;29;20035;-74
2021/09/27 08:43:40;;;;;;;5.07;1.42;;;;;;;21.12;44.03;100139.09;4906541;29;20025;-74
2021/09/27 08:46:14;;;;;;;3.38;1.35;;;;;;;21.54;43.35;100135.47;4907789;29;20043;-74
2021/09/27 08:48:45;;;;;;;4.10;0.98;;;;;;;21.75;42.81;100131.81;4907799;29;20031;-75
2021/09/27 08:51:10;;;;;;;3.45;1.17;;;;;;;21.72;42.91;100138.19;4899678;29;20112;-75
2021/09/27 08:53:44;;;;;;;4.57;1.63;;;;;;;21.76;42.71;100138.94;4898183;29;20119;-75
2021/09/27 08:56:28;;;;;;;3.65;1.13;;;;;;;21.94;42.45;100144.44;4897854;29;20044;-75
2021/09/27 08:59:21;;;;;;;6.03;1.33;;;;;;;21.73;42.78;100146.13;4896858;29;20036;-75
2021/09/27 09:01:55;;;;;;;4.70;1.88;;;;;;;21.89;42.60;100148.44;4907024;29;20111;-77
2021/09/27 09:04:50;;;;;;;6.47;1.90;;;;;;;21.95;42.45;100163.50;4915891;29;20032;-75
2021/09/27 09:07:18;;;;;;;4.10;1.52;;;;;;;22.11;42.24;100163.06;4910067;29;20679;-75
2021/09/27 09:09:48;;;;;;;3.90;1.20;;;;;;;22.07;42.55;100162.28;4916174;29;20031;-75
2021/09/27 09:12:20;;;;;;;4.32;1.48;;;;;;;21.69;43.14;100169.56;4916068;29;20119;-75
2021/09/27 09:14:54;;;;;;;7.13;2.70;;;;;;;22.04;42.14;100177.78;4915378;29;20087;-75
2021/09/27 09:17:26;;;;;;;6.68;1.83;;;;;;;22.18;41.96;100176.94;4916360;29;20056;-75
2021/09/27 09:19:52;;;;;;;4.32;1.30;;;;;;;22.29;41.97;100191.63;4916530;29;20035;-75
2021/09/27 09:22:27;;;;;;;5.68;1.52;;;;;;;22.09;41.91;100185.75;4916961;29;20047;-75
2021/09/27 09:24:54;;;;;;;9.70;2.28;;;;;;;22.00;42.36;100196.47;4916662;29;20028;-75
2021/09/27 09:27:20;;;;;;;7.95;2.38;;;;;;;22.04;42.27;100185.31;4915531;29;20025;-75
2021/09/27 09:29:46;;;;;;;8.57;1.35;;;;;;;22.50;41.28;100192.66;4916605;29;20024;-75
2021/09/27 09:32:21;;;;;;;4.00;1.42;;;;;;;22.57;41.18;100190.63;4916499;29;20394;-75
2021/09/27 09:34:52;;;;;;;7.57;2.13;;;;;;;22.61;41.41;100196.97;4916465;29;20408;-75
2021/09/27 09:37:44;;;;;;;4.55;1.70;;;;;;;22.79;41.00;100199.63;4916469;29;20099;-75
2021/09/27 09:40:49;;;;;;;5.40;1.27;;;;;;;22.65;41.67;100194.94;4916514;29;20430;-75
2021/09/27 09:43:28;;;;;;;7.75;2.17;;;;;;;22.99;41.13;100208.28;4916436;29;20054;-75
2021/09/27 09:46:14;;;;;;;8.35;1.55;;;;;;;23.05;40.70;100205.81;4916699;29;20036;-75
2021/09/27 09:49:22;;;;;;;7.43;1.38;;;;;;;22.83;41.00;100200.41;4916431;29;20071;-75
2021/09/27 09:51:58;;;;;;;4.45;1.25;;;;;;;23.25;40.59;100204.84;4913352;29;20103;-75
2021/09/27 09:54:26;;;;;;;8.40;2.53;;;;;;;23.37;40.10;100205.56;4916392;29;20029;-75
2021/09/27 09:56:58;;;;;;;6.10;1.52;;;;;;;23.37;39.89;100205.56;4916383;29;20550;-75
2021/09/27 10:00:13;;;;;;;6.97;1.65;;;;;;;23.32;39.58;100208.78;4916352;29;20055;-75
2021/09/27 10:02:41;;;;;;;9.93;2.05;;;;;;;23.21;39.87;100209.69;4911708;29;20055;-75
2021/09/27 10:05:19;;;;;;;6.05;1.45;;;;;;;23.35;39.88;100228.28;4916276;29;20453;-75
2021/09/27 10:07:56;;;;;;;4.32;1.35;;;;;;;23.18;39.93;100212.47;4916313;29;20024;-76
2021/09/27 10:10:43;;;;;;;2.92;1.23;;;;;;;23.36;39.43;100220.69;4916263;29;20119;-75
2021/09/27 10:13:35;;;;;;;3.83;1.80;;;;;;;23.05;40.14;100231.72;4916317;29;20040;-75
2021/09/27 10:16:05;;;;;;;8.52;1.90;;;;;;;23.04;39.92;100227.31;4916104;29;20032;-75
2021/09/27 10:18:34;;;;;;;4.53;1.25;;;;;;;23.11;40.08;100218.13;4916142;29;20039;-75
2021/09/27 10:21:18;;;;;;;9.60;2.65;;;;;;;23.40;39.54;100233.38;4916120;29;20055;-75
2021/09/27 10:23:50;;;;;;;6.97;1.85;;;;;;;23.30;39.49;100227.91;4914756;29;20036;-74
2021/09/27 10:26:34;;;;;;;6.85;1.83;;;;;;;23.18;39.99;100227.22;4917207;29;20115;-74
2021/09/27 10:29:14;;;;;;;5.03;1.58;;;;;;;23.08;39.94;100233.66;4919747;29;20056;-74
2021/09/27 10:31:44;;;;;;;4.03;1.30;;;;;;;23.66;38.93;100233.97;4918296;29;20483;-74
2021/09/27 10:34:17;;;;;;;11.60;2.08;;;;;;;23.90;38.23;100232.91;4918348;29;20046;-75
2021/09/27 10:36:46;;;;;;;8.35;2.40;;;;;;;23.84;39.03;100239.34;4918283;29;20030;-74
2021/09/27 10:39:15;;;;;;;4.85;1.35;;;;;;;23.89;38.75;100234.13;4918237;29;20096;-75
2021/09/27 10:41:55;;;;;;;6.25;1.10;;;;;;;24.06;38.42;100230.31;4919490;29;20107;-74
2021/09/27 10:44:43;;;;;;;7.78;1.73;;;;;;;23.90;38.08;100243.28;4918048;29;20509;-74
2021/09/27 10:47:16;;;;;;;3.28;1.15;;;;;;;24.34;37.24;100243.19;4919431;29;20028;-74
2021/09/27 10:50:04;;;;;;;5.53;1.65;;;;;;;24.56;36.97;100246.47;4919357;29;20051;-74
2021/09/27 10:52:51;;;;;;;5.40;2.00;;;;;;;24.14;36.89;100256.16;4919200;29;20115;-74
2021/09/27 10:55:43;;;;;;;3.90;1.30;;;;;;;23.93;37.35;100259.19;4919120;29;20131;-74
2021/09/27 10:58:12;;;;;;;3.72;1.10;;;;;;;24.39;36.78;100252.28;4917958;29;20036;-74
2021/09/27 11:00:46;;;;;;;4.30;1.73;;;;;;;24.51;35.98;100257.31;4919113;29;20086;-74
2021/09/27 11:03:20;;;;;;;7.78;1.70;;;;;;;24.54;35.84;100264.84;4919138;29;20021;-74
2021/09/27 11:05:50;;;;;;;4.55;1.35;;;;;;;24.06;35.89;100263.81;4919198;29;20028;-75
2021/09/27 11:08:53;;;;;;;6.00;1.52;;;;;;;23.88;35.17;100259.63;4919378;29;20016;-75
2021/09/27 11:11:27;;;;;;;7.43;1.48;;;;;;;24.37;35.03;100254.69;4917689;29;20032;-76
2021/09/27 11:13:54;;;;;;;4.78;1.00;;;;;;;24.11;34.98;100259.78;4917686;29;20398;-75
2021/09/27 11:16:20;;;;;;;5.50;1.77;;;;;;;23.64;35.42;100261.47;4918908;29;20103;-75
2021/09/27 11:19:04;;;;;;;6.32;1.60;;;;;;;24.54;34.31;100273.22;4918851;29;20111;-75
2021/09/27 11:21:35;;;;;;;3.35;1.33;;;;;;;24.51;35.36;100269.28;4917543;29;20024;-75
2021/09/27 11:24:10;;;;;;;6.50;1.58;;;;;;;24.85;34.95;100254.41;4918988;29;20032;-75
2021/09/27 11:26:44;;;;;;;5.63;1.17;;;;;;;24.44;35.12;100261.00;4917485;29;20032;-75
2021/09/27 11:29:28;;;;;;;4.35;1.90;;;;;;;24.62;34.67;100271.91;4918637;29;20487;-75
2021/09/27 11:32:14;;;;;;;6.25;1.40;;;;;;;24.23;35.35;100273.19;4918758;29;20036;-75
2021/09/27 11:34:51;;;;;;;7.10;1.63;;;;;;;24.71;34.16;100274.19;4917271;29;20028;-75
2021/09/27 11:37:27;;;;;;;9.63;1.70;;;;;;;23.49;35.47;100277.50;4916520;29;20024;-75
2021/09/27 11:40:11;;;;;;;5.75;1.40;;;;;;;24.54;35.16;100282.38;4904011;29;20476;-76
2021/09/27 11:42:52;;;;;;;6.10;1.27;;;;;;;24.88;34.72;100268.34;4899567;29;20119;-76
2021/09/27 11:45:30;;;;;;;7.22;2.03;;;;;;;24.91;34.64;100277.88;4898363;29;20033;-76
2021/09/27 11:48:00;;;;;;;4.53;1.95;;;;;;;25.31;33.84;100278.88;4899486;29;20498;-75
2021/09/27 11:50:28;;;;;;;4.47;1.80;;;;;;;24.55;33.99;100280.38;4899502;29;20391;-75
2021/09/27 11:53:02;;;;;;;5.50;1.42;;;;;;;24.53;34.40;100291.19;4899582;29;20088;-75
2021/09/27 11:55:33;;;;;;;7.38;1.50;;;;;;;25.30;33.11;100276.50;4907467;29;20044;-76
2021/09/27 11:58:07;;;;;;;6.13;1.50;;;;;;;25.01;33.61;100290.09;4906801;29;20080;-75
2021/09/27 12:00:44;;;;;;;8.55;1.60;;;;;;;24.83;33.51;100304.34;4907503;29;20024;-75
2021/09/27 12:03:19;;;;;;;6.28;1.23;;;;;;;24.88;33.67;100307.47;4905923;29;20040;-75
2021/09/27 12:06:20;;;;;;;12.90;2.75;;;;;;;25.00;32.99;100296.91;4904707;29;20033;-75
2021/09/27 12:09:38;;;;;;;4.60;1.40;;;;;;;24.75;33.52;100303.66;4897939;29;20123;-75
2021/09/27 12:12:07;;;;;;;6.90;1.40;;;;;;;24.59;33.77;100304.28;4876403;29;20487;-75
2021/09/27 12:14:44;;;;;;;8.25;2.17;;;;;;;24.80;33.51;100316.38;4907660;29;20040;-76
2021/09/27 12:17:15;;;;;;;9.10;1.40;;;;;;;24.90;33.92;100315.44;4905835;29;20033;-74
2021/09/27 12:19:54;;;;;;;7.57;1.85;;;;;;;24.44;32.32;100319.63;4905148;29;20043;-75
2021/09/27 12:22:28;;;;;;;6.13;2.08;;;;;;;25.42;32.40;100321.44;4906345;29;20039;-75
2021/09/27 12:24:54;;;;;;;8.95;1.85;;;;;;;24.98;32.99;100322.50;4906883;29;20495;-75
2021/09/27 12:27:28;;;;;;;6.35;1.80;;;;;;;25.44;32.09;100332.19;4908137;29;20021;-74
2021/09/27 12:30:12;;;;;;;5.13;1.10;;;;;;;25.34;32.02;100322.00;4907714;29;20051;-74
2021/09/27 12:32:46;;;;;;;4.45;1.02;;;;;;;25.63;32.13;100330.72;4906199;29;20120;-74
2021/09/27 12:35:23;;;;;;;7.10;1.10;;;;;;;25.34;32.58;100322.78;4905829;29;20372;-74
2021/09/27 12:37:54;;;;;;;11.52;2.75;;;;;;;25.97;31.46;100330.53;4903657;29;20020;-74
2021/09/27 12:40:24;;;;;;;4.53;1.10;;;;;;;26.35;31.44;100330.97;4907977;29;20075;-76
2021/09/27 12:42:54;;;;;;;8.00;1.83;;;;;;;26.22;30.97;100346.84;4905289;29;20024;-76
2021/09/27 12:45:36;;;;;;;5.72;1.70;;;;;;;25.75;31.84;100344.09;4908052;29;20047;-75
2021/09/27 12:48:09;;;;;;;5.85;1.90;;;;;;;25.79;30.91;100350.44;4905546;29;20017;-74
2021/09/27 12:50:36;;;;;;;11.40;2.13;;;;;;;26.12;30.93;100364.63;4905650;29;20036;-74
2021/09/27 12:53:11;;;;;;;5.95;1.50;;;;;;;25.94;30.32;100371.38;4907612;29;20058;-74
2021/09/27 12:55:56;;;;;;;3.33;0.90;;;;;;;26.09;30.29;100379.50;4907244;29;20044;-76
2021/09/27 12:58:26;;;;;;;9.20;2.00;;;;;;;25.92;30.63;100381.38;4903924;29;20044;-76
2021/09/27 13:00:53;;;;;;;5.25;1.63;;;;;;;25.79;30.61;100377.63;4906474;29;20024;-69
2021/09/27 13:03:25;;;;;;;10.15;1.70;;;;;;;25.94;30.25;100393.75;4907565;29;20708;-71
2021/09/27 13:06:16;;;;;;;5.30;2.05;;;;;;;25.68;30.85;100386.16;4904904;29;20021;-68
2021/09/27 13:08:47;;;;;;;5.85;1.88;;;;;;;25.53;30.81;100396.00;4898767;29;20387;-69
2021/09/27 13:11:24;;;;;;;10.38;2.78;;;;;;;25.43;31.56;100406.13;4904904;29;20630;-70
2021/09/27 13:14:01;;;;;;;7.57;1.63;;;;;;;25.50;31.84;100414.44;4902993;29;20027;-69
2021/09/27 13:16:32;;;;;;;8.48;2.10;;;;;;;25.66;31.46;100422.97;4903532;29;20054;-73
2021/09/27 13:18:57;;;;;;;4.70;1.55;;;;;;;25.72;31.55;100428.91;4904086;29;20024;-71
2021/09/27 13:21:46;;;;;;;7.13;1.98;;;;;;;25.79;30.73;100411.22;4907840;29;20020;-73
2021/09/27 13:24:24;;;;;;;3.80;1.30;;;;;;;25.85;30.85;100415.91;4904970;29;20506;-73
2021/09/27 13:26:52;;;;;;;5.80;1.35;;;;;;;25.87;31.07;100421.84;4904205;29;20059;-74
2021/09/27 13:29:18;;;;;;;8.80;2.05;;;;;;;25.66;31.33;100441.75;4906663;29;20028;-73
2021/09/27 13:32:18;;;;;;;5.88;1.63;;;;;;;25.80;30.88;100444.38;4909401;29;20034;-72
2021/09/27 13:35:01;;;;;;;12.27;2.03;;;;;;;25.55;31.49;100450.31;4894394;29;20471;-73
2021/09/27 13:38:04;;;;;;;6.07;1.60;;;;;;;25.40;31.61;100460.91;4903513;29;20047;-73
2021/09/27 13:41:07;;;;;;;4.72;1.13;;;;;;;24.87;32.28;100473.56;4902218;29;20488;-71
2021/09/27 13:43:33;;;;;;;12.75;1.95;;;;;;;24.96;31.95;100470.25;4876222;29;20046;-73
2021/09/27 13:46:04;;;;;;;4.75;1.13;;;;;;;24.40;31.83;100466.84;4905688;29;20040;-70
2021/09/27 13:48:30;;;;;;;5.50;1.30;;;;;;;24.09;31.43;100477.88;4904080;29;20021;-72
2021/09/27 13:50:57;;;;;;;4.05;1.13;;;;;;;24.11;31.26;100490.63;4905356;29;20024;-70
2021/09/27 13:53:36;;;;;;;4.10;1.25;;;;;;;23.60;31.54;100493.00;4906726;29;20028;-73
2021/09/27 13:56:09;;;;;;;3.38;0.95;;;;;;;23.95;31.39;100502.31;4906851;29;20044;-72
2021/09/27 13:58:35;;;;;;;3.50;0.80;;;;;;;23.85;31.66;100519.91;4905130;29;20482;-73
2021/09/27 14:01:00;;;;;;;3.63;1.50;;;;;;;23.86;32.06;100519.50;4907048;29;20104;-71
2021/09/27 14:03:29;;;;;;;3.85;0.90;;;;;;;23.40;33.22;100530.91;4910778;29;20036;-69
2021/09/27 14:05:58;;;;;;;4.85;1.42;;;;;;;23.25;34.51;100533.75;4909953;29;20100;-73
2021/09/27 14:08:25;;;;;;;3.75;1.45;;;;;;;23.29;34.85;100541.31;4908711;29;20040;-73
2021/09/27 14:10:51;;;;;;;5.65;1.13;;;;;;;23.37;34.84;100540.09;4910065;29;20025;-69
2021/09/27 14:13:19;;;;;;;5.40;0.90;;;;;;;23.53;34.77;100541.19;4908790;29;20031;-72
2021/09/27 14:15:47;;;;;;;5.82;1.17;;;;;;;23.50;35.28;100532.84;4910367;29;20027;-69
2021/09/27 14:18:14;;;;;;;6.88;0.95;;;;;;;23.53;35.40;100537.63;4908366;29;20108;-70
2021/09/27 14:20:41;;;;;;;5.00;1.50;;;;;;;23.60;35.84;100543.19;4908242;29;20036;-71
2021/09/27 14:23:07;;;;;;;5.32;1.20;;;;;;;23.56;36.59;100544.38;4908580;29;20120;-69
2021/09/27 14:25:33;;;;;;;4.18;1.20;;;;;;;23.96;36.20;100545.78;4909829;29;20103;-68
2021/09/27 14:27:59;;;;;;;2.38;0.95;;;;;;;24.02;36.18;100538.53;4918451;29;20028;-70
2021/09/27 14:30:25;;;;;;;3.05;1.05;;;;;;;24.27;35.78;100536.38;4919423;29;20024;-70
2021/09/27 14:32:52;;;;;;;2.08;0.70;;;;;;;24.44;35.78;100522.69;4919288;29;20201;-70
2021/09/27 14:35:19;;;;;;;4.75;1.17;;;;;;;24.46;36.32;100532.22;4919432;29;20463;-69
2021/09/27 14:37:45;;;;;;;1.77;0.65;;;;;;;24.64;35.74;100537.66;4919653;29;20431;-71
2021/09/27 14:40:12;;;;;;;1.30;0.50;;;;;;;24.63;35.59;100536.84;4914100;29;20028;-69
2021/09/27 14:42:38;;;;;;;5.10;1.08;;;;;;;24.51;35.80;100539.38;4915590;29;20036;-69
2021/09/27 14:45:08;;;;;;;1.77;0.68;;;;;;;24.52;35.12;100540.97;4917417;29;20598;-69
2021/09/27 14:47:35;;;;;;;4.53;1.30;;;;;;;24.36;35.12;100535.91;4917805;29;20534;-69
2021/09/27 14:50:01;;;;;;;3.70;1.45;;;;;;;24.34;35.07;100544.72;4918060;29;20522;-69
2021/09/27 14:52:27;;;;;;;4.07;1.15;;;;;;;24.33;34.89;100545.09;4918003;29;20036;-70
2021/09/27 14:54:53;;;;;;;1.20;0.80;;;;;;;24.41;34.40;100543.03;4917689;29;20032;-70
2021/09/27 14:57:19;;;;;;;1.17;0.63;;;;;;;24.54;34.15;100555.31;4916673;29;20483;-71
2021/09/27 14:59:45;;;;;;;2.83;0.60;;;;;;;24.63;34.55;100559.19;4916819;29;20031;-70
2021/09/27 15:02:10;;;;;;;2.50;0.98;;;;;;;24.76;34.24;100553.91;4916751;29;20036;-70
2021/09/27 15:04:36;;;;;;;2.38;0.55;;;;;;;24.73;34.50;100557.53;4916654;29;20043;-71
2021/09/27 15:07:02;;;;;;;12.40;2.58;;;;;;;25.02;34.40;100552.44;4916864;29;20035;-71
2021/09/27 15:09:28;;;;;;;24.75;2.25;;;;;;;25.11;33.96;100554.75;4916817;29;20111;-72
2021/09/27 15:11:54;;;;;;;5.68;1.30;;;;;;;25.04;34.20;100552.84;4917127;29;20168;-71
2021/09/27 15:14:20;;;;;;;3.42;0.77;;;;;;;25.24;33.77;100557.78;4918441;29;20509;-71
2021/09/27 15:16:46;;;;;;;4.53;1.23;;;;;;;25.13;33.80;100555.13;4918385;29;20398;-71
2021/09/27 15:19:12;;;;;;;2.45;0.75;;;;;;;25.31;33.24;100563.31;4918348;29;20048;-70
2021/09/27 15:21:40;;;;;;;2.17;0.90;;;;;;;25.24;33.21;100567.00;4918493;29;20079;-70
2021/09/27 15:24:07;;;;;;;7.63;0.88;;;;;;;25.06;32.90;100569.97;4918143;29;20115;-71
2021/09/27 15:26:33;;;;;;;7.07;1.15;;;;;;;24.79;33.26;100577.44;4916981;29;20035;-70
2021/09/27 15:29:12;;;;;;;7.97;1.15;;;;;;;24.87;33.23;100574.16;4918287;29;20387;-70
2021/09/27 15:31:46;;;;;;;10.57;1.58;;;;;;;24.96;33.54;100572.88;4918050;29;20023;-70
2021/09/27 15:34:18;;;;;;;6.82;0.98;;;;;;;25.13;33.31;100569.13;4917987;29;20043;-70
2021/09/27 15:36:45;;;;;;;6.63;1.63;;;;;;;25.22;33.27;100583.38;4918038;29;20387;-70
2021/09/27 15:39:13;;;;;;;6.32;1.70;;;;;;;25.22;33.04;100577.00;4917903;29;20028;-72
2021/09/27 15:41:40;;;;;;;7.43;1.88;;;;;;;25.12;33.52;100584.31;4917878;29;20070;-70
2021/09/27 15:44:08;;;;;;;2.78;0.73;;;;;;;25.06;33.09;100574.78;4917807;29;20036;-70
2021/09/27 15:46:34;;;;;;;2.70;0.85;;;;;;;24.72;33.08;100581.09;4917842;29;20031;-72
2021/09/27 15:49:00;;;;;;;4.05;1.10;;;;;;;25.00;32.54;100582.78;4917653;29;20036;-70
2021/09/27 15:51:25;;;;;;;2.28;0.68;;;;;;;24.82;32.50;100582.19;4917737;29;20088;-70
2021/09/27 15:53:51;;;;;;;6.25;0.93;;;;;;;24.97;32.56;100586.41;4917545;29;20043;-70
2021/09/27 15:56:17;;;;;;;5.65;1.02;;;;;;;24.67;32.60;100592.69;4917311;29;20048;-70
2021/09/27 15:58:43;;;;;;;8.30;2.28;;;;;;;24.60;32.54;100603.94;4916306;29;20526;-72
2021/09/27 16:01:09;;;;;;;1.80;1.00;;;;;;;24.26;33.26;100607.38;4917556;29;20368;-71
2021/09/27 16:03:36;;;;;;;7.68;1.58;;;;;;;24.24;33.51;100609.75;4917376;29;20039;-70
2021/09/27 16:06:05;;;;;;;6.28;1.13;;;;;;;24.20;33.57;100613.78;4917397;29;20107;-70
2021/09/27 16:08:31;;;;;;;5.03;1.40;;;;;;;24.02;33.74;100611.88;4917396;29;20027;-71
2021/09/27 16:10:59;;;;;;;16.40;1.95;;;;;;;24.11;33.79;100619.00;4917608;29;20064;-71
2021/09/27 16:13:26;;;;;;;11.77;2.40;;;;;;;24.05;34.04;100625.03;4917186;29;20028;-70
2021/09/27 16:15:52;;;;;;;6.38;1.27;;;;;;;24.15;34.06;100630.97;4917186;29;20024;-70
2021/09/27 16:18:20;;;;;;;2.97;0.85;;;;;;;24.09;34.03;100630.59;4917198;29;20047;-70
2021/09/27 16:20:47;;;;;;;3.83;1.20;;;;;;;24.05;34.08;100638.19;4917155;29;20024;-70
2021/09/27 16:23:13;;;;;;;5.63;1.10;;;;;;;24.12;34.02;100635.38;4916903;29;20032;-69
2021/09/27 16:25:42;;;;;;;7.93;1.60;;;;;;;24.18;34.32;100628.16;4916664;29;20035;-71
2021/09/27 16:28:10;;;;;;;4.88;1.67;;;;;;;24.10;34.22;100640.53;4916736;29;20028;-79
2021/09/27 16:30:36;;;;;;;6.53;1.20;;;;;;;24.05;34.52;100638.19;4915617;29;20028;-74
2021/09/27 16:33:02;;;;;;;9.25;2.20;;;;;;;23.77;34.68;100637.13;4916649;29;20024;-73
2021/09/27 16:35:29;;;;;;;2.90;1.00;;;;;;;23.62;35.01;100643.97;4916709;29;20032;-76
2021/09/27 16:37:55;;;;;;;11.55;1.02;;;;;;;23.76;34.35;100648.72;4916458;29;20024;-67
2021/09/27 16:40:22;;;;;;;5.88;1.10;;;;;;;23.30;35.00;100644.06;4900700;29;20119;-72
2021/09/27 16:42:49;;;;;;;3.78;1.00;;;;;;;23.53;34.37;100651.94;4897873;29;20028;-72
2021/09/27 16:45:15;;;;;;;7.63;1.55;;;;;;;23.40;34.29;100656.38;4898067;29;20313;-71
2021/09/27 16:47:41;;;;;;;5.63;1.52;;;;;;;23.50;34.32;100644.38;4896470;29;20029;-71
2021/09/27 16:50:07;;;;;;;6.72;1.30;;;;;;;23.39;34.21;100647.22;4897782;29;20032;-71
2021/09/27 16:52:33;;;;;;;7.53;1.10;;;;;;;23.31;34.03;100644.84;4897626;29;20025;-71
2021/09/27 16:54:59;;;;;;;5.25;1.15;;;;;;;22.98;34.16;100647.69;4897633;29;20134;-71
2021/09/27 16:57:28;;;;;;;7.65;1.77;;;;;;;23.49;33.45;100648.38;4897492;29;20045;-72
2021/09/27 17:00:01;;;;;;;2.78;1.30;;;;;;;23.38;33.56;100650.41;4896382;29;20032;-70
2021/09/27 17:02:27;;;;;;;2.60;1.00;;;;;;;23.36;33.89;100655.59;4897659;29;20037;-73
2021/09/27 17:04:53;;;;;;;4.85;1.42;;;;;;;23.44;33.81;100655.16;4897510;29;20029;-72
2021/09/27 17:07:19;;;;;;;16.25;9.52;;;;;;;23.45;33.67;100658.75;4897549;29;20103;-69
2021/09/27 17:09:50;;;;;;;6.35;4.43;;;;;;;23.60;33.23;100656.72;4897448;29;20395;-74
2021/09/27 17:12:17;;;;;;;3.72;2.25;;;;;;;23.65;33.32;100657.09;4897408;29;20035;-71
2021/09/27 17:20:01;;;;;;;4.65;2.00;;;;;;;23.63;33.70;100670.66;4897290;29;20060;-72
2021/09/27 17:22:27;;;;;;;5.78;1.15;;;;;;;23.64;33.78;100666.66;4897099;29;20036;-73
2021/09/27 17:24:53;;;;;;;5.57;2.28;;;;;;;23.51;33.86;100665.50;4896755;29;20420;-72
2021/09/27 17:27:20;;;;;;;2.08;1.00;;;;;;;23.53;34.19;100668.69;4897168;29;20028;-72
2021/09/27 17:29:48;;;;;;;6.35;5.78;;;;;;;23.44;34.48;100665.53;4897066;29;20029;-72
2021/09/27 17:32:14;;;;;;;10.95;2.42;;;;;;;23.50;34.18;100666.69;4897089;29;20087;-71
2021/09/27 17:34:40;;;;;;;16.25;15.18;;;;;;;23.45;34.56;100670.69;4896529;29;20109;-71
2021/09/27 17:37:07;;;;;;;8.32;4.28;;;;;;;23.46;34.54;100677.06;4897082;29;20104;-72
2021/09/27 17:39:34;;;;;;;2.40;1.88;;;;;;;23.36;34.71;100670.31;4896958;29;20499;-72
2021/09/27 17:42:00;;;;;;;9.85;2.42;;;;;;;23.32;35.02;100674.31;4895788;29;20032;-72
2021/09/27 17:44:25;;;;;;;6.63;4.53;;;;;;;23.25;34.89;100673.13;4897005;29;20115;-72
2021/09/27 17:46:51;;;;;;;5.35;1.83;;;;;;;23.22;34.71;100685.06;4896952;29;20036;-73
2021/09/27 17:49:18;;;;;;;10.05;4.95;;;;;;;23.11;34.95;100675.91;4895603;29;20068;-73